createdAt,value
2023-02-24T00:00:38.709Z,5.50
2023-02-24T00:16:01.478Z,6.10
2023-02-24T00:21:08.357Z,6.10
2023-02-24T00:26:11.919Z,6.10
2023-02-24T00:31:19.123Z,6.00
2023-02-24T00:36:24.030Z,6.00
2023-02-24T00:38:55.815Z,6.00
2023-02-24T00:41:29.403Z,6.00
2023-02-24T00:44:06.159Z,6.30
2023-02-24T00:46:40.478Z,6.20
2023-02-24T00:49:12.716Z,6.00
2023-02-24T00:51:44.654Z,6.00
2023-02-24T00:56:48.004Z,6.00
2023-02-24T00:59:22.367Z,6.00
2023-02-24T01:01:55.814Z,6.30
2023-02-24T01:04:28.780Z,6.00
2023-02-24T01:09:32.507Z,6.00
2023-02-24T01:14:48.194Z,5.60
2023-02-24T01:17:21.704Z,5.90
2023-02-24T01:19:52.783Z,6.10
2023-02-24T01:22:24.160Z,5.80
2023-02-24T01:32:29.011Z,5.80
2023-02-24T01:42:34.871Z,5.60
2023-02-24T01:45:21.351Z,5.80
2023-02-24T01:47:55.613Z,5.80
2023-02-24T01:50:27.581Z,5.80
2023-02-24T01:53:01.493Z,5.70
2023-02-24T01:55:36.889Z,5.80
2023-02-24T01:58:11.535Z,5.80
2023-02-24T02:00:45.829Z,5.60
2023-02-24T02:03:27.101Z,5.70
2023-02-24T02:06:02.621Z,5.80
2023-02-24T02:08:36.496Z,5.80
2023-02-24T02:11:09.345Z,6.00
2023-02-24T02:13:42.815Z,5.80
2023-02-24T02:16:38.015Z,5.90
2023-02-24T02:19:31.780Z,5.80
2023-02-24T02:22:10.590Z,5.60
2023-02-24T02:24:50.307Z,5.80
2023-02-24T02:27:42.267Z,5.90
2023-02-24T02:30:45.301Z,6.10
2023-02-24T02:34:00.428Z,5.40
2023-02-24T02:36:39.911Z,5.50
2023-02-24T02:39:20.455Z,5.90
2023-02-24T02:41:56.778Z,5.90
2023-02-24T02:44:34.311Z,6.50
2023-02-24T02:47:14.307Z,5.80
2023-02-24T02:49:48.223Z,5.80
2023-02-24T02:52:26.788Z,5.80
2023-02-24T02:55:02.103Z,5.80
2023-02-24T02:57:35.428Z,5.80
2023-02-24T03:00:13.590Z,6.00
2023-02-24T03:02:48.302Z,5.80
2023-02-24T03:05:22.795Z,5.70
2023-02-24T03:07:57.830Z,5.50
2023-02-24T03:10:34.342Z,5.70
2023-02-24T03:13:06.645Z,5.70
2023-02-24T03:15:42.298Z,5.70
2023-02-24T03:18:18.661Z,5.70
2023-02-24T03:20:52.428Z,5.60
2023-02-24T03:23:29.345Z,5.60
2023-02-24T03:26:07.829Z,5.60
2023-02-24T03:28:42.613Z,5.60
2023-02-24T03:31:18.340Z,5.60
2023-02-24T03:34:00.678Z,5.60
2023-02-24T03:36:31.428Z,5.40
2023-02-24T03:39:05.843Z,5.60
2023-02-24T03:41:46.129Z,5.60
2023-02-24T03:52:08.779Z,5.90
2023-02-24T03:55:09.372Z,5.60
2023-02-24T03:58:00.014Z,5.70
2023-02-24T04:00:43.930Z,5.50
2023-02-24T04:03:28.532Z,5.50
2023-02-24T04:06:15.410Z,5.40
2023-02-24T04:08:52.802Z,5.50
2023-02-24T04:11:29.084Z,5.50
2023-02-24T04:14:08.808Z,5.70
2023-02-24T04:16:44.470Z,5.50
2023-02-24T04:19:20.136Z,5.50
2023-02-24T04:21:53.599Z,5.50
2023-02-24T04:24:32.773Z,5.50
2023-02-24T04:27:06.528Z,5.40
2023-02-24T04:29:48.998Z,5.40
2023-02-24T04:32:24.083Z,5.40
2023-02-24T04:42:31.143Z,5.40
2023-02-24T04:45:09.981Z,5.40
2023-02-24T04:50:22.768Z,5.60
2023-02-24T04:52:54.488Z,5.40
2023-02-24T04:55:29.162Z,5.40
2023-02-24T04:58:00.176Z,5.40
2023-02-24T05:00:35.498Z,5.70
2023-02-24T05:03:07.906Z,5.50
2023-02-24T05:08:10.644Z,5.20
2023-02-24T05:10:43.461Z,5.40
2023-02-24T05:13:16.369Z,5.30
2023-02-24T05:15:50.680Z,5.30
2023-02-24T05:18:23.278Z,5.30
2023-02-24T05:21:07.220Z,5.20
2023-02-24T05:23:39.659Z,5.00
2023-02-24T05:26:11.477Z,5.30
2023-02-24T05:28:43.251Z,5.20
2023-02-24T05:31:18.395Z,5.20
2023-02-24T05:33:50.429Z,5.20
2023-02-24T05:36:22.252Z,5.20
2023-02-24T05:38:58.035Z,5.20
2023-02-24T05:41:32.642Z,5.20
2023-02-24T05:46:39.238Z,5.20
2023-02-24T05:49:11.516Z,5.20
2023-02-24T05:51:43.638Z,5.20
2023-02-24T05:54:17.506Z,5.40
2023-02-24T05:56:47.468Z,6.00
2023-02-24T05:59:21.565Z,5.20
2023-02-24T06:01:55.605Z,5.10
2023-02-24T06:07:14.133Z,5.30
2023-02-24T06:09:45.016Z,5.20
2023-02-24T06:12:16.641Z,5.10
2023-02-24T06:17:22.055Z,5.20
2023-02-24T06:19:53.602Z,4.80
2023-02-24T06:22:27.002Z,5.40
2023-02-24T06:24:57.959Z,5.50
2023-02-24T06:32:31.516Z,5.20
2023-02-24T06:47:38.705Z,5.40
2023-02-24T06:50:09.831Z,5.10
2023-02-24T06:55:25.453Z,5.10
2023-02-24T06:57:58.667Z,4.80
2023-02-24T07:00:37.319Z,5.00
2023-02-24T07:03:17.401Z,5.20
2023-02-24T07:05:51.136Z,5.10
2023-02-24T07:08:23.648Z,5.00
2023-02-24T07:10:58.400Z,5.20
2023-02-24T07:13:30.143Z,5.20
2023-02-24T07:16:07.186Z,5.20
2023-02-24T07:18:42.944Z,5.00
2023-02-24T07:21:16.342Z,5.20
2023-02-24T07:23:49.785Z,5.50
2023-02-24T07:26:23.162Z,5.30
2023-02-24T07:28:55.014Z,5.30
2023-02-24T07:31:26.688Z,5.30
2023-02-24T07:34:02.058Z,5.40
2023-02-24T07:36:39.015Z,5.40
2023-02-24T07:39:11.815Z,5.30
2023-02-24T07:44:16.333Z,5.30
2023-02-24T07:49:21.168Z,5.30
2023-02-24T07:51:53.181Z,5.50
2023-02-24T07:56:59.591Z,5.20
2023-02-24T07:59:32.463Z,5.40
2023-02-24T08:02:07.632Z,5.40
2023-02-24T08:04:41.300Z,4.90
2023-02-24T08:10:03.504Z,5.60
2023-02-24T08:12:35.248Z,5.30
2023-02-24T08:20:36.172Z,5.40
2023-02-24T08:23:08.726Z,5.50
2023-02-24T08:25:38.680Z,5.60
2023-02-24T08:28:11.771Z,5.50
2023-02-24T08:30:46.486Z,5.50
2023-02-24T08:33:21.246Z,5.50
2023-02-24T08:36:01.592Z,5.50
2023-02-24T08:38:44.634Z,5.40
2023-02-24T08:41:18.060Z,5.50
2023-02-24T08:43:49.522Z,5.30
2023-02-24T08:46:26.600Z,5.50
2023-02-24T08:49:00.803Z,5.50
2023-02-24T08:51:35.544Z,5.60
2023-02-24T08:54:11.331Z,5.60
2023-02-24T08:56:43.824Z,5.70
2023-02-24T08:59:29.274Z,5.60
2023-02-24T09:02:18.296Z,5.70
2023-02-24T09:07:23.873Z,5.70
2023-02-24T09:17:50.143Z,5.70
2023-02-24T09:20:34.772Z,5.70
2023-02-24T09:23:07.796Z,5.70
2023-02-24T09:25:49.741Z,5.70
2023-02-24T09:28:24.654Z,5.70
2023-02-24T09:30:58.014Z,5.70
2023-02-24T09:33:39.129Z,5.80
2023-02-24T09:36:20.310Z,5.90
2023-02-24T09:39:19.741Z,5.90
2023-02-24T09:41:57.098Z,5.70
2023-02-24T09:44:36.086Z,5.90
2023-02-24T09:47:14.080Z,5.90
2023-02-24T09:49:50.824Z,5.90
2023-02-24T09:52:37.397Z,6.00
2023-02-24T09:55:27.803Z,6.00
2023-02-24T09:58:20.258Z,6.00
2023-02-24T10:00:58.740Z,6.10
2023-02-24T10:04:14.889Z,6.20
2023-02-24T10:15:46.892Z,6.20
2023-02-24T10:21:03.169Z,6.40
2023-02-24T10:23:45.161Z,6.50
2023-02-24T10:29:09.765Z,6.80
2023-02-24T10:34:26.445Z,7.00
2023-02-24T10:39:33.309Z,7.20
2023-02-24T10:42:18.009Z,7.10
2023-02-24T10:45:01.702Z,7.30
2023-02-24T10:47:33.636Z,7.40
2023-02-24T10:50:06.493Z,7.40
2023-02-24T10:52:51.078Z,7.50
2023-02-24T10:55:52.693Z,7.60
2023-02-24T10:58:37.950Z,7.50
2023-02-24T11:01:18.776Z,7.50
2023-02-24T11:09:35.373Z,7.40
2023-02-24T11:15:08.676Z,7.60
2023-02-24T11:17:50.888Z,7.80
2023-02-24T11:20:49.063Z,7.90
2023-02-24T11:23:22.082Z,8.00
2023-02-24T11:25:54.660Z,7.90
2023-02-24T11:28:42.003Z,8.20
2023-02-24T11:36:37.509Z,8.20
2023-02-24T11:39:21.537Z,8.20
2023-02-24T11:44:31.518Z,8.00
2023-02-24T11:52:20.696Z,7.90
2023-02-24T11:54:55.033Z,7.70
2023-02-24T11:57:27.118Z,7.70
2023-02-24T12:00:04.887Z,7.60
2023-02-24T12:02:47.109Z,7.60
2023-02-24T12:05:22.270Z,7.60
2023-02-24T12:13:05.823Z,7.60
2023-02-24T12:15:41.214Z,7.70
2023-02-24T12:18:20.009Z,7.70
2023-02-24T12:20:57.824Z,7.60
2023-02-24T12:23:33.043Z,7.60
2023-02-24T12:26:17.829Z,7.60
2023-02-24T12:29:10.699Z,7.80
2023-02-24T12:31:54.318Z,7.90
2023-02-24T12:34:34.961Z,8.00
2023-02-24T12:37:31.858Z,8.00
2023-02-24T12:40:13.633Z,8.00
2023-02-24T12:42:49.238Z,8.10
2023-02-24T12:45:25.210Z,8.20
2023-02-24T12:48:09.155Z,8.20
2023-02-24T12:50:50.044Z,8.30
2023-02-24T12:53:29.621Z,8.20
2023-02-24T12:56:08.077Z,8.30
2023-02-24T12:58:41.500Z,8.30
2023-02-24T13:01:19.729Z,8.30
2023-02-24T13:04:10.474Z,8.30
2023-02-24T13:06:54.511Z,8.20
2023-02-24T13:09:34.674Z,8.20
2023-02-24T13:12:08.919Z,8.00
2023-02-24T13:14:40.885Z,8.00
2023-02-24T13:17:22.907Z,7.90
2023-02-24T13:22:32.329Z,7.90
2023-02-24T13:25:21.455Z,7.80
2023-02-24T13:28:01.955Z,8.00
2023-02-24T13:30:39.852Z,8.40
2023-02-24T13:33:24.933Z,8.50
2023-02-24T13:36:08.083Z,8.80
2023-02-24T13:41:40.776Z,9.00
2023-02-24T13:44:28.848Z,8.70
2023-02-24T13:47:40.952Z,9.70
2023-02-24T13:50:25.385Z,8.30
2023-02-24T13:58:53.518Z,8.10
2023-02-24T14:01:29.488Z,8.00
2023-02-24T14:04:09.292Z,8.00
2023-02-24T14:09:10.252Z,7.70
2023-02-24T14:11:40.844Z,7.70
2023-02-24T14:14:18.975Z,7.80
2023-02-24T14:16:53.599Z,7.80
2023-02-24T14:21:55.642Z,7.90
2023-02-24T14:26:58.004Z,7.80
2023-02-24T14:32:05.236Z,7.90
2023-02-24T14:37:08.053Z,7.70
2023-02-24T14:49:59.809Z,7.70
2023-02-24T14:55:08.526Z,7.70
2023-02-24T15:10:26.169Z,7.60
2023-02-24T15:20:43.128Z,7.50
2023-02-24T15:23:29.288Z,7.50
2023-02-24T15:31:10.891Z,7.30
2023-02-24T15:36:20.763Z,7.30
2023-02-24T15:43:56.678Z,7.20
2023-02-24T15:46:32.715Z,7.20
2023-02-24T15:51:38.747Z,7.00
2023-02-24T15:54:13.988Z,7.00
2023-02-24T15:59:17.423Z,7.00
2023-02-24T16:06:57.008Z,6.90
2023-02-24T16:09:33.227Z,7.00
2023-02-24T16:17:09.814Z,6.80
2023-02-24T16:27:18.862Z,6.70
2023-02-24T16:37:26.570Z,6.60
2023-02-24T16:47:28.051Z,6.40
2023-02-24T17:10:10.665Z,6.50
2023-02-24T17:20:16.655Z,6.60
2023-02-24T17:22:47.443Z,6.30
2023-02-24T17:25:19.848Z,6.20
2023-02-24T17:30:22.560Z,6.20
2023-02-24T17:37:56.106Z,6.10
2023-02-24T17:58:02.758Z,5.90
2023-02-24T18:05:36.674Z,5.80
2023-02-24T18:20:44.422Z,1.80
2023-02-24T18:33:15.457Z,5.70
2023-02-24T18:43:19.578Z,5.80
2023-02-24T18:45:49.468Z,5.70
2023-02-24T18:50:56.224Z,5.50
2023-02-24T19:06:06.180Z,5.30
2023-02-24T19:18:42.411Z,5.20
2023-02-24T19:21:17.503Z,5.10
2023-02-24T19:31:21.743Z,4.30
2023-02-24T19:44:01.133Z,3.80
2023-02-24T20:01:41.188Z,3.20
2023-02-24T20:09:17.816Z,2.70
2023-02-24T20:11:48.242Z,2.60
2023-02-24T20:21:53.334Z,2.10
2023-02-24T20:24:23.467Z,2.10
2023-02-24T20:29:26.017Z,1.80
2023-02-24T20:34:26.889Z,1.90
2023-02-24T20:36:59.517Z,1.60
2023-02-24T20:49:30.709Z,1.80
2023-02-24T20:52:03.235Z,1.40
2023-02-24T20:54:33.199Z,1.80
2023-02-24T20:59:33.345Z,1.30
2023-02-24T21:02:03.344Z,1.60
2023-02-24T21:04:33.274Z,1.60
2023-02-24T21:07:05.756Z,1.40
2023-02-24T21:27:07.054Z,1.30
2023-02-24T21:37:09.160Z,1.10
2023-02-24T21:57:19.843Z,1.40
2023-02-24T22:04:52.049Z,1.50
2023-02-24T22:07:21.963Z,1.40
2023-02-24T22:14:55.829Z,1.30
2023-02-24T22:19:56.308Z,2.10
2023-02-24T22:22:26.249Z,1.40
2023-02-24T22:24:58.732Z,1.30
2023-02-24T22:40:02.723Z,1.30
2023-02-24T22:42:32.700Z,1.30
2023-02-24T22:45:03.051Z,1.30
2023-02-24T23:15:17.283Z,2.10
2023-02-24T23:17:48.955Z,1.10
2023-02-24T23:20:19.961Z,1.40
2023-02-24T23:35:27.443Z,1.50
2023-02-24T23:37:57.474Z,1.30
2023-02-24T23:58:19.460Z,1.40
